Time;durP1;ratioP1;P1;durP2;ratioP2;P2;SDS_P1;SDS_P2;PMS_P1;PMS_P2;Temp;Humidity;BMP_temperature;BMP_pressure;BME280_temperature;BME280_humidity;BME280_pressure;Samples;Min_cycle;Max_cycle;Signal;HPM_P1;HPM_P2
2022/04/05 00:02:10;;;;;;;7.13;4.90;;;;;;;6.69;53.01;99347.09;5016939;28;20818;-75
2022/04/05 00:04:35;;;;;;;5.80;5.00;;;;;;;6.66;53.22;99360.31;5016919;28;20631;-74
2022/04/05 00:07:01;;;;;;;5.37;4.57;;;;;;;6.66;52.70;99355.09;5018536;28;20633;-73
2022/04/05 00:09:27;;;;;;;7.50;5.63;;;;;;;6.65;52.60;99354.25;5016896;28;20737;-74
2022/04/05 00:11:52;;;;;;;5.45;4.95;;;;;;;6.65;52.80;99348.19;5017641;28;20217;-74
2022/04/05 00:14:18;;;;;;;5.63;4.57;;;;;;;6.65;52.85;99343.81;5018909;28;20532;-74
2022/04/05 00:16:43;;;;;;;8.87;6.27;;;;;;;6.65;52.63;99338.59;5017070;28;20804;-74
2022/04/05 00:19:09;;;;;;;7.13;4.97;;;;;;;6.65;52.63;99341.22;5017426;28;20317;-74
2022/04/05 00:21:34;;;;;;;6.70;4.90;;;;;;;6.67;52.33;99337.66;5017511;28;20948;-74
2022/04/05 00:24:00;;;;;;;5.40;4.60;;;;;;;6.68;52.34;99337.59;5017337;28;20209;-74
2022/04/05 00:26:25;;;;;;;5.60;4.87;;;;;;;6.69;52.26;99338.44;5016529;28;20212;-74
2022/04/05 00:28:51;;;;;;;4.97;4.53;;;;;;;6.70;52.23;99337.50;5016805;28;20217;-73
2022/04/05 00:31:16;;;;;;;7.70;5.80;;;;;;;6.69;52.51;99334.06;5017665;28;20751;-74
2022/04/05 00:33:42;;;;;;;8.50;4.50;;;;;;;6.70;52.28;99321.84;5016604;28;20931;-74
2022/04/05 00:36:07;;;;;;;6.93;5.03;;;;;;;6.70;51.65;99327.94;5016879;28;20742;-74
2022/04/05 00:38:33;;;;;;;7.20;4.60;;;;;;;6.72;51.97;99317.38;5015980;28;20844;-73
2022/04/05 00:40:59;;;;;;;7.80;4.70;;;;;;;6.72;52.11;99309.56;5016253;28;20217;-74
2022/04/05 00:43:25;;;;;;;8.27;5.60;;;;;;;6.72;51.57;99325.22;5016195;28;20355;-74
2022/04/05 00:45:50;;;;;;;4.30;3.63;;;;;;;6.72;51.55;99318.22;5015282;28;20226;-74
2022/04/05 00:48:49;;;;;;;6.80;5.47;;;;;;;6.73;51.42;99306.88;5015867;28;20229;-73
2022/04/05 00:51:15;;;;;;;6.93;4.90;;;;;;;6.72;51.46;99302.56;5011020;28;20694;-73
2022/04/05 00:53:50;;;;;;;7.18;5.28;;;;;;;6.72;51.77;99301.72;5014469;28;20222;-73
2022/04/05 00:56:17;;;;;;;5.50;4.82;;;;;;;6.71;51.77;99298.28;5015589;28;20282;-73
2022/04/05 00:59:01;;;;;;;7.43;5.10;;;;;;;6.70;51.67;99291.38;5015890;28;20675;-73
2022/04/05 01:01:28;;;;;;;7.55;5.35;;;;;;;6.72;51.62;99293.91;5018553;28;20485;-73
2022/04/05 01:03:54;;;;;;;8.38;6.13;;;;;;;6.70;51.94;99294.00;5019786;28;20209;-74
2022/04/05 01:06:26;;;;;;;8.15;4.53;;;;;;;6.67;51.84;99291.56;5019791;28;20202;-74
2022/04/05 01:08:53;;;;;;;4.90;3.92;;;;;;;6.66;51.79;99284.63;5018731;28;20209;-74
2022/04/05 01:11:18;;;;;;;4.78;4.00;;;;;;;6.67;51.55;99288.94;5018702;28;20221;-74
2022/04/05 01:13:43;;;;;;;5.83;4.73;;;;;;;6.68;51.62;99277.56;5019021;28;20210;-74
2022/04/05 01:16:12;;;;;;;5.20;4.70;;;;;;;6.67;51.46;99288.94;5019607;28;20580;-74
2022/04/05 01:18:38;;;;;;;6.97;5.22;;;;;;;6.67;51.67;99281.13;5018186;28;20922;-74
2022/04/05 01:21:03;;;;;;;4.30;4.00;;;;;;;6.68;51.51;99289.78;5020026;28;20675;-74
2022/04/05 01:23:29;;;;;;;7.43;4.40;;;;;;;6.67;51.40;99286.34;5018384;28;20222;-74
2022/04/05 01:25:56;;;;;;;6.40;5.23;;;;;;;6.67;51.55;99282.84;5018716;28;20249;-74
2022/04/05 01:28:22;;;;;;;7.97;5.55;;;;;;;6.67;51.32;99288.94;5019138;28;20206;-74
2022/04/05 01:30:48;;;;;;;5.30;4.78;;;;;;;6.69;51.47;99294.06;5018737;28;20206;-75
2022/04/05 01:33:13;;;;;;;7.18;5.85;;;;;;;6.72;51.20;99283.47;5018303;28;20507;-75
2022/04/05 01:35:39;;;;;;;5.67;5.17;;;;;;;6.72;51.18;99284.31;5018787;28;20222;-75
2022/04/05 01:38:07;;;;;;;6.83;4.80;;;;;;;6.74;50.79;99276.41;5019006;28;20221;-74
2022/04/05 01:40:32;;;;;;;6.40;5.80;;;;;;;6.73;50.91;99282.56;5020750;28;20444;-75
2022/04/05 01:42:58;;;;;;;5.50;4.50;;;;;;;6.72;51.20;99283.47;5019522;28;20228;-75
2022/04/05 01:45:24;;;;;;;5.80;5.20;;;;;;;6.73;51.06;99282.56;5019739;28;20909;-74
2022/04/05 01:47:49;;;;;;;6.93;5.60;;;;;;;6.74;51.29;99274.63;5021810;28;20470;-74
2022/04/05 01:50:15;;;;;;;7.00;5.37;;;;;;;6.73;51.06;99280.78;5023561;28;20213;-74
2022/04/05 01:52:40;;;;;;;6.53;5.40;;;;;;;6.72;50.81;99278.25;5024872;28;20737;-74
2022/04/05 01:55:07;;;;;;;6.17;5.57;;;;;;;6.72;50.67;99268.63;5024375;28;20351;-74
2022/04/05 01:57:33;;;;;;;5.47;4.40;;;;;;;6.72;50.46;99271.25;5017274;28;20213;-74
2022/04/05 01:59:59;;;;;;;8.10;5.93;;;;;;;6.74;49.93;99261.56;5023229;28;20214;-75
2022/04/05 02:02:24;;;;;;;6.57;5.50;;;;;;;6.79;49.99;99253.50;5021736;28;20473;-74
2022/04/05 02:04:50;;;;;;;6.63;5.00;;;;;;;6.78;49.72;99251.84;5021144;28;20554;-75
2022/04/05 02:07:19;;;;;;;6.45;4.75;;;;;;;6.78;50.17;99251.84;5022531;28;20214;-74
2022/04/05 02:09:48;;;;;;;7.07;5.13;;;;;;;6.78;49.86;99262.28;4999865;28;20550;-75
2022/04/05 02:12:16;;;;;;;7.82;5.60;;;;;;;6.76;50.10;99264.13;5006256;28;20579;-75
2022/04/05 02:14:52;;;;;;;5.40;4.53;;;;;;;6.77;50.11;99265.78;5020566;28;20768;-74
2022/04/05 02:17:24;;;;;;;9.30;5.35;;;;;;;6.77;49.89;99258.78;5019644;28;20241;-75
2022/04/05 02:19:52;;;;;;;6.57;4.90;;;;;;;6.79;50.06;99258.72;5020136;28;20213;-75
2022/04/05 02:22:18;;;;;;;6.85;5.40;;;;;;;6.79;49.28;99259.56;5015966;28;20675;-75
2022/04/05 02:24:46;;;;;;;7.22;4.97;;;;;;;6.79;49.20;99256.94;5016374;28;20250;-75
2022/04/05 02:27:12;;;;;;;6.60;5.23;;;;;;;6.80;49.70;99258.63;5017771;28;20206;-75
2022/04/05 02:29:38;;;;;;;4.83;4.33;;;;;;;6.81;49.28;99249.06;5015996;28;20711;-74
2022/04/05 02:32:11;;;;;;;6.30;5.70;;;;;;;6.82;49.58;99251.56;5002023;28;20473;-74
2022/04/05 02:34:39;;;;;;;7.50;4.95;;;;;;;6.80;49.20;99245.56;5018603;28;20473;-74
2022/04/05 02:37:05;;;;;;;5.68;4.85;;;;;;;6.81;49.30;99243.84;5002051;28;20213;-73
2022/04/05 02:39:33;;;;;;;5.68;4.78;;;;;;;6.82;49.45;99245.50;5018999;28;20209;-69
2022/04/05 02:42:02;;;;;;;6.68;4.63;;;;;;;6.83;48.91;99249.78;5001461;28;20290;-74
2022/04/05 02:44:30;;;;;;;5.82;4.43;;;;;;;6.84;49.08;99261.94;5002058;28;20232;-75
2022/04/05 02:47:02;;;;;;;6.20;4.70;;;;;;;6.83;49.12;99253.28;5001354;28;20718;-75
2022/04/05 02:49:31;;;;;;;6.05;4.78;;;;;;;6.83;48.77;99261.09;5018855;28;20202;-73
2022/04/05 02:51:58;;;;;;;3.92;3.60;;;;;;;6.85;48.85;99261.00;5002874;28;20205;-73
2022/04/05 02:54:31;;;;;;;6.53;4.07;;;;;;;6.85;48.77;99254.00;5004302;28;20226;-73
2022/04/05 02:56:59;;;;;;;5.25;4.55;;;;;;;6.84;49.11;99252.34;5006710;28;20556;-73
2022/04/05 02:59:25;;;;;;;8.03;4.90;;;;;;;6.85;49.08;99250.56;5019476;28;20198;-73
2022/04/05 03:01:52;;;;;;;6.93;5.30;;;;;;;6.83;49.25;99241.97;5000407;28;20490;-75
2022/04/05 03:04:19;;;;;;;7.85;6.07;;;;;;;6.83;49.27;99245.44;5003213;28;20257;-73
2022/04/05 03:06:46;;;;;;;8.35;4.88;;;;;;;6.83;49.36;99237.59;5001044;28;20210;-73
2022/04/05 03:09:12;;;;;;;6.28;4.20;;;;;;;6.83;49.31;99242.81;5015589;28;20200;-77
2022/04/05 03:11:39;;;;;;;8.00;5.90;;;;;;;6.83;49.35;99232.38;5001463;28;20288;-73
2022/04/05 03:14:05;;;;;;;8.57;5.30;;;;;;;6.83;49.31;99234.13;5018440;28;20234;-75
2022/04/05 03:16:37;;;;;;;7.10;4.90;;;;;;;6.82;49.54;99238.50;5016653;28;20694;-75
2022/04/05 03:19:05;;;;;;;6.40;4.75;;;;;;;6.81;49.79;99236.84;5014917;28;20206;-75
2022/04/05 03:21:32;;;;;;;6.55;5.45;;;;;;;6.79;50.54;99230.84;5001132;28;20305;-76
2022/04/05 03:23:58;;;;;;;5.43;4.72;;;;;;;6.76;51.56;99236.25;5013493;28;20206;-74
2022/04/05 03:26:23;;;;;;;6.83;5.23;;;;;;;6.75;52.41;99231.97;5001392;28;20265;-76
2022/04/05 03:28:49;;;;;;;8.53;5.00;;;;;;;6.71;53.07;99237.41;5015128;28;20594;-76
2022/04/05 03:31:14;;;;;;;6.20;4.73;;;;;;;6.65;53.33;99241.19;5000804;28;20367;-74
2022/04/05 03:33:43;;;;;;;6.68;4.78;;;;;;;6.62;54.02;99233.53;5003547;28;20230;-74
2022/04/05 03:36:11;;;;;;;7.70;5.10;;;;;;;6.57;54.32;99235.53;5001064;28;20206;-76
2022/04/05 03:38:36;;;;;;;6.10;5.50;;;;;;;6.54;53.88;99236.56;5015142;28;20983;-74
2022/04/05 03:41:02;;;;;;;8.67;4.90;;;;;;;6.53;54.22;99234.84;5002366;28;20210;-73
2022/04/05 03:43:28;;;;;;;4.00;3.47;;;;;;;6.52;54.41;99240.16;5019112;28;20210;-73
2022/04/05 03:45:56;;;;;;;9.07;5.28;;;;;;;6.51;54.39;99238.47;5002103;28;20313;-74
2022/04/05 03:48:23;;;;;;;5.88;4.95;;;;;;;6.48;54.45;99243.84;5002701;28;20213;-75
2022/04/05 03:50:49;;;;;;;5.85;5.32;;;;;;;6.48;54.22;99242.09;4999377;28;20499;-74
2022/04/05 03:53:15;;;;;;;6.30;4.67;;;;;;;6.49;54.17;99242.94;5000684;28;20237;-75
2022/04/05 03:55:42;;;;;;;6.72;5.05;;;;;;;6.47;54.19;99232.56;4998499;28;20233;-73
2022/04/05 03:58:13;;;;;;;4.55;4.15;;;;;;;6.46;54.48;99232.66;5002372;28;20202;-72
2022/04/05 04:00:40;;;;;;;7.50;5.40;;;;;;;6.43;54.76;99229.28;5017450;28;20198;-74
2022/04/05 04:03:13;;;;;;;8.70;5.03;;;;;;;6.42;54.83;99235.41;4998713;28;20249;-72
2022/04/05 04:05:39;;;;;;;5.57;5.00;;;;;;;6.42;54.59;99235.41;5018371;28;20785;-71
2022/04/05 04:08:07;;;;;;;5.38;4.88;;;;;;;6.42;54.54;99230.19;5002126;28;20214;-74
2022/04/05 04:10:34;;;;;;;9.68;6.18;;;;;;;6.42;54.48;99230.19;4999652;28;20555;-72
2022/04/05 04:13:01;;;;;;;6.85;5.32;;;;;;;6.43;54.56;99228.44;5000113;28;20218;-73
2022/04/05 04:15:33;;;;;;;7.70;6.15;;;;;;;6.44;54.58;99222.28;5002951;28;20232;-74
2022/04/05 04:17:59;;;;;;;7.32;4.80;;;;;;;6.44;54.42;99222.28;5017336;28;20205;-75
2022/04/05 04:20:25;;;;;;;9.50;6.30;;;;;;;6.42;54.19;99211.94;5016819;28;20679;-73
2022/04/05 04:22:50;;;;;;;12.10;5.40;;;;;;;6.41;54.35;99215.47;5017079;28;20210;-74
2022/04/05 04:25:16;;;;;;;11.57;6.27;;;;;;;6.39;54.65;99209.50;4999535;28;20851;-74
2022/04/05 04:27:42;;;;;;;7.28;6.07;;;;;;;6.41;54.16;99207.66;4999165;28;20894;-74
2022/04/05 04:30:08;;;;;;;8.40;6.07;;;;;;;6.43;54.04;99215.41;5019615;28;20217;-73
2022/04/05 04:32:33;;;;;;;8.10;6.13;;;;;;;6.45;53.85;99199.66;5015498;28;20515;-72
2022/04/05 04:34:59;;;;;;;7.50;6.03;;;;;;;6.46;54.10;99214.41;5021637;28;20252;-75
2022/04/05 04:37:24;;;;;;;8.97;5.50;;;;;;;6.45;54.10;99208.31;5025653;28;20631;-75
2022/04/05 04:39:50;;;;;;;7.97;5.93;;;;;;;6.45;53.83;99208.31;5025021;28;20289;-73
2022/04/05 04:42:15;;;;;;;4.67;4.20;;;;;;;6.47;53.29;99200.44;5023057;28;20590;-75
2022/04/05 04:44:41;;;;;;;7.17;5.37;;;;;;;6.48;53.23;99197.75;5019957;28;20221;-72
2022/04/05 04:47:07;;;;;;;9.23;5.30;;;;;;;6.49;53.41;99194.19;5025186;28;20305;-75
2022/04/05 04:49:32;;;;;;;8.30;5.00;;;;;;;6.50;53.01;99208.09;5026700;28;20210;-73
2022/04/05 04:51:58;;;;;;;8.20;5.50;;;;;;;6.50;52.94;99206.31;5025239;28;20214;-75
2022/04/05 04:54:23;;;;;;;6.73;5.20;;;;;;;6.54;52.45;99212.22;5009519;28;20325;-72
2022/04/05 04:56:49;;;;;;;6.73;4.90;;;;;;;6.56;51.81;99212.97;5030378;28;20293;-75
2022/04/05 04:59:14;;;;;;;8.77;5.20;;;;;;;6.57;51.93;99209.44;5025302;28;20201;-74
2022/04/05 05:01:39;;;;;;;6.23;4.53;;;;;;;6.60;51.59;99211.91;5027409;28;20209;-74
2022/04/05 05:04:05;;;;;;;12.20;5.60;;;;;;;6.60;51.80;99204.91;5029058;28;20344;-74
2022/04/05 05:06:30;;;;;;;7.27;5.40;;;;;;;6.61;51.65;99216.19;5027975;28;20221;-73
2022/04/05 05:08:56;;;;;;;6.73;4.57;;;;;;;6.62;51.95;99215.28;5027611;28;20206;-75
2022/04/05 05:11:22;;;;;;;5.80;4.90;;;;;;;6.63;51.63;99211.72;5027088;28;20210;-73
2022/04/05 05:13:48;;;;;;;6.28;4.20;;;;;;;6.64;51.19;99201.22;5029057;28;20282;-74
2022/04/05 05:16:14;;;;;;;8.35;5.40;;;;;;;6.65;51.08;99202.06;5024953;28;20208;-74
2022/04/05 05:18:39;;;;;;;6.50;5.10;;;;;;;6.65;51.17;99200.28;5029287;28;20201;-73
2022/04/05 05:21:05;;;;;;;5.97;4.20;;;;;;;6.66;51.17;99211.56;5027374;28;20221;-74
2022/04/05 05:23:30;;;;;;;7.10;5.23;;;;;;;6.67;51.17;99197.59;5030773;28;20326;-74
2022/04/05 05:25:55;;;;;;;7.57;5.20;;;;;;;6.69;51.52;99200.09;5025753;28;20245;-75
2022/04/05 05:28:21;;;;;;;6.20;4.80;;;;;;;6.69;51.18;99198.34;5028404;28;20205;-74
2022/04/05 05:30:46;;;;;;;7.70;5.60;;;;;;;6.72;51.65;99195.56;5027017;28;20514;-75
2022/04/05 05:33:12;;;;;;;6.80;6.03;;;;;;;6.74;51.52;99196.31;5024577;28;20529;-75
2022/04/05 05:35:38;;;;;;;10.93;6.93;;;;;;;6.73;51.61;99196.41;5027899;28;20217;-71
2022/04/05 05:38:03;;;;;;;8.03;5.53;;;;;;;6.72;51.66;99206.00;5027836;28;20224;-75
2022/04/05 05:40:28;;;;;;;8.83;5.60;;;;;;;6.73;50.99;99212.09;5028052;28;20225;-75
2022/04/05 05:43:04;;;;;;;6.43;5.20;;;;;;;6.75;51.19;99215.44;5026324;28;20213;-72
2022/04/05 05:45:35;;;;;;;10.02;7.25;;;;;;;6.74;51.21;99209.38;5028587;28;20237;-72
2022/04/05 05:48:05;;;;;;;8.93;6.13;;;;;;;6.74;51.18;99204.16;5026655;28;20308;-75
2022/04/05 05:50:31;;;;;;;12.00;6.95;;;;;;;6.73;51.62;99207.69;5024636;28;20856;-73
2022/04/05 05:52:58;;;;;;;12.35;7.40;;;;;;;6.73;51.27;99212.91;5022403;28;21252;-75
2022/04/05 05:55:25;;;;;;;10.18;8.02;;;;;;;6.73;51.54;99217.31;5022776;28;20250;-73
2022/04/05 05:57:51;;;;;;;9.37;6.80;;;;;;;6.73;51.40;99222.53;5022416;28;20254;-72
2022/04/05 06:00:21;;;;;;;12.03;8.83;;;;;;;6.73;51.57;99212.91;5024756;28;20240;-75
2022/04/05 06:02:48;;;;;;;10.32;8.52;;;;;;;6.76;51.64;99231.03;5022552;28;20483;-74
2022/04/05 06:05:13;;;;;;;9.50;7.28;;;;;;;6.76;51.17;99209.31;5024159;28;20229;-74
2022/04/05 06:07:41;;;;;;;12.83;7.90;;;;;;;6.76;51.65;99217.97;5023962;28;20267;-75
2022/04/05 06:10:08;;;;;;;13.63;8.38;;;;;;;6.75;51.29;99213.69;5023615;28;20371;-73
2022/04/05 06:12:37;;;;;;;13.93;7.95;;;;;;;6.78;51.35;99213.53;5022850;28;20208;-72
2022/04/05 06:15:03;;;;;;;9.02;6.68;;;;;;;6.78;51.48;99216.13;5026570;28;20230;-75
2022/04/05 06:17:29;;;;;;;7.70;5.88;;;;;;;6.78;51.34;99231.78;5026298;28;20213;-74
2022/04/05 06:19:54;;;;;;;8.13;5.73;;;;;;;6.80;51.01;99211.63;5022620;28;20555;-73
2022/04/05 06:22:19;;;;;;;7.80;5.20;;;;;;;6.81;51.45;99230.78;5025359;28;20304;-75
2022/04/05 06:24:46;;;;;;;7.17;5.40;;;;;;;6.80;51.41;99224.69;5023298;28;20450;-73
2022/04/05 06:27:12;;;;;;;7.40;4.90;;;;;;;6.81;51.13;99226.41;5024058;28;20306;-73
2022/04/05 06:29:37;;;;;;;6.97;5.30;;;;;;;6.85;51.40;99225.28;5021998;28;20571;-75
2022/04/05 06:32:03;;;;;;;6.90;5.40;;;;;;;6.89;51.11;99222.53;5022168;28;20544;-73
2022/04/05 06:34:29;;;;;;;6.70;5.57;;;;;;;6.91;50.52;99228.50;4880985;28;20285;-74
2022/04/05 06:36:54;;;;;;;6.33;5.60;;;;;;;6.92;50.42;99231.03;4906431;29;20521;-74
2022/04/05 06:39:20;;;;;;;7.73;5.23;;;;;;;6.93;50.75;99224.88;4906572;29;20210;-74
2022/04/05 06:41:45;;;;;;;6.40;5.30;;;;;;;6.96;50.50;99227.31;4909046;29;20242;-71
2022/04/05 06:44:11;;;;;;;8.67;4.97;;;;;;;6.98;50.23;99225.47;4921815;29;20289;-72
2022/04/05 06:46:36;;;;;;;8.30;5.30;;;;;;;6.99;50.36;99224.53;4907969;29;20224;-71
2022/04/05 06:49:03;;;;;;;5.67;4.50;;;;;;;7.02;50.57;99233.97;4922400;29;20218;-73
2022/04/05 06:51:29;;;;;;;6.78;5.05;;;;;;;7.05;50.19;99228.59;4910766;29;20314;-74
2022/04/05 06:53:56;;;;;;;7.40;5.57;;;;;;;7.07;49.96;99239.78;4908544;29;20226;-72
2022/04/05 06:56:25;;;;;;;6.50;4.90;;;;;;;7.07;50.02;99239.78;4906623;29;20218;-73
2022/04/05 06:58:51;;;;;;;5.18;4.22;;;;;;;7.07;50.54;99242.38;4906225;29;20221;-73
2022/04/05 07:01:17;;;;;;;8.73;5.28;;;;;;;7.09;50.09;99230.94;4906253;29;20198;-72
2022/04/05 07:03:42;;;;;;;4.60;4.20;;;;;;;7.12;50.11;99223.88;4905365;29;20629;-73
2022/04/05 07:06:08;;;;;;;6.50;5.50;;;;;;;7.15;49.67;99223.69;4906962;29;20230;-73
2022/04/05 07:08:33;;;;;;;14.53;7.70;;;;;;;7.19;49.37;99217.38;4906390;29;20778;-74
2022/04/05 07:10:58;;;;;;;13.23;8.40;;;;;;;7.17;49.53;99222.69;4906170;29;20754;-72
2022/04/05 07:13:24;;;;;;;14.53;8.60;;;;;;;7.20;49.72;99226.88;4905119;29;20226;-72
2022/04/05 07:15:49;;;;;;;16.57;8.10;;;;;;;7.20;49.43;99230.34;4906399;29;20233;-75
2022/04/05 07:18:15;;;;;;;11.83;7.57;;;;;;;7.25;49.71;99230.09;4905596;29;20218;-75
2022/04/05 07:20:40;;;;;;;9.60;6.20;;;;;;;7.26;49.35;99229.16;4905671;29;20487;-72
2022/04/05 07:23:05;;;;;;;9.83;6.60;;;;;;;7.29;49.52;99242.91;4905541;29;20210;-73
2022/04/05 07:25:34;;;;;;;14.60;8.83;;;;;;;7.32;49.38;99234.06;4905302;28;20265;-74
2022/04/05 07:28:02;;;;;;;10.43;7.10;;;;;;;7.35;49.03;99231.28;4904731;29;20954;-74
2022/04/05 07:30:27;;;;;;;15.63;9.50;;;;;;;7.37;49.16;99220.72;4904841;29;20596;-73
2022/04/05 07:32:53;;;;;;;12.97;8.33;;;;;;;7.39;48.92;99217.09;4902987;29;20831;-74
2022/04/05 07:35:18;;;;;;;10.80;8.27;;;;;;;7.40;49.14;99208.34;4906532;28;20217;-75
2022/04/05 07:37:44;;;;;;;11.67;6.73;;;;;;;7.43;48.78;99216.00;4904090;29;20226;-76
2022/04/05 07:40:10;;;;;;;15.50;8.20;;;;;;;7.48;48.74;99198.28;4905999;29;20214;-76
2022/04/05 07:42:38;;;;;;;16.33;7.60;;;;;;;7.49;48.81;99202.56;4904014;29;20228;-76
2022/04/05 07:45:04;;;;;;;11.93;7.22;;;;;;;7.50;49.00;99201.63;4903700;29;20711;-75
2022/04/05 07:47:29;;;;;;;6.80;5.97;;;;;;;7.54;49.01;99190.09;4904562;29;20218;-74
2022/04/05 07:49:55;;;;;;;9.40;6.10;;;;;;;7.58;48.84;99189.91;4904161;29;20225;-74
2022/04/05 07:52:20;;;;;;;5.83;5.20;;;;;;;7.62;48.81;99201.88;4904657;29;20213;-75
2022/04/05 07:54:46;;;;;;;10.03;6.80;;;;;;;7.64;48.60;99205.22;4904072;29;20240;-75
2022/04/05 07:57:13;;;;;;;7.20;5.57;;;;;;;7.69;48.81;99190.13;4904205;29;20572;-72
2022/04/05 07:59:39;;;;;;;9.73;6.55;;;;;;;7.72;48.73;99198.63;4903628;28;20217;-75
2022/04/05 08:02:05;;;;;;;6.32;4.70;;;;;;;7.78;48.39;99192.22;4918573;29;20210;-75
2022/04/05 08:04:30;;;;;;;7.70;5.30;;;;;;;7.80;48.37;99192.09;4904016;29;20241;-73
2022/04/05 08:06:56;;;;;;;8.97;5.67;;;;;;;7.87;48.57;99190.81;4904103;29;20462;-75
2022/04/05 08:09:21;;;;;;;7.50;5.33;;;;;;;7.91;48.61;99198.41;4903241;29;20692;-74
2022/04/05 08:11:47;;;;;;;6.33;4.87;;;;;;;7.99;48.10;99184.84;4903084;29;20217;-74
2022/04/05 08:14:12;;;;;;;7.30;4.97;;;;;;;8.04;48.07;99202.88;4904785;29;20783;-74
2022/04/05 08:16:38;;;;;;;10.10;5.70;;;;;;;8.06;48.05;99195.78;4904345;29;21096;-75
2022/04/05 08:19:04;;;;;;;8.50;5.30;;;;;;;8.07;48.41;99206.16;4904178;29;20774;-74
2022/04/05 08:21:30;;;;;;;6.63;4.90;;;;;;;8.11;48.43;99201.59;4904080;29;20450;-75
2022/04/05 08:23:56;;;;;;;6.97;4.97;;;;;;;8.16;48.31;99207.41;4901663;29;21003;-76
2022/04/05 08:26:21;;;;;;;7.50;5.33;;;;;;;8.19;47.95;99207.22;4903107;29;20249;-75
2022/04/05 08:28:47;;;;;;;7.67;5.10;;;;;;;8.24;48.21;99214.78;4905099;29;20534;-77
2022/04/05 08:31:12;;;;;;;6.87;4.17;;;;;;;8.27;47.57;99204.13;4906374;29;20233;-74
2022/04/05 08:33:38;;;;;;;9.63;5.03;;;;;;;8.27;47.93;99206.75;4904280;29;20630;-73
2022/04/05 08:36:04;;;;;;;6.60;5.10;;;;;;;8.29;47.87;99207.47;4905346;28;20262;-76
2022/04/05 08:38:29;;;;;;;4.80;4.30;;;;;;;8.30;47.89;99209.19;4904792;29;20218;-72
2022/04/05 08:40:55;;;;;;;6.77;4.77;;;;;;;8.31;48.34;99203.81;4903885;29;20313;-75
2022/04/05 08:43:21;;;;;;;10.23;5.43;;;;;;;8.40;48.11;99216.41;4903974;29;20209;-74
2022/04/05 08:46:02;;;;;;;7.00;5.60;;;;;;;8.40;48.02;99212.94;4904464;29;20277;-73
2022/04/05 08:48:29;;;;;;;9.27;5.25;;;;;;;8.43;47.89;99211.94;4904277;29;20517;-74
2022/04/05 08:50:57;;;;;;;6.78;4.75;;;;;;;8.45;48.06;99213.47;4903996;29;20233;-72
2022/04/05 08:53:22;;;;;;;5.25;4.20;;;;;;;8.49;47.96;99203.69;4904391;29;20286;-75
2022/04/05 08:55:48;;;;;;;9.53;4.40;;;;;;;8.51;47.84;99217.53;4903949;29;20233;-75
2022/04/05 08:58:14;;;;;;;5.73;3.97;;;;;;;8.55;47.98;99209.38;4904393;29;20217;-76
2022/04/05 09:00:40;;;;;;;5.28;4.15;;;;;;;8.59;47.69;99228.38;4903454;29;20735;-74
2022/04/05 09:03:06;;;;;;;5.70;5.15;;;;;;;8.59;47.65;99226.59;4904013;29;20210;-74
2022/04/05 09:05:43;;;;;;;11.60;7.00;;;;;;;8.60;47.75;99216.94;4903738;28;20258;-74
2022/04/05 09:08:35;;;;;;;9.07;5.15;;;;;;;8.63;47.80;99220.22;4903693;29;20782;-75
2022/04/05 09:11:04;;;;;;;5.88;4.40;;;;;;;8.62;47.82;99226.41;4904140;29;20214;-75
2022/04/05 09:13:31;;;;;;;6.25;4.72;;;;;;;8.61;48.06;99219.50;4904180;29;20563;-75
2022/04/05 09:15:59;;;;;;;9.23;5.07;;;;;;;8.64;48.16;99210.56;4903746;29;20848;-74
2022/04/05 09:18:32;;;;;;;8.70;5.22;;;;;;;8.66;48.14;99207.88;4904415;29;20218;-75
2022/04/05 09:20:58;;;;;;;5.97;4.63;;;;;;;8.68;48.24;99209.47;4905521;29;20218;-75
2022/04/05 09:23:29;;;;;;;6.80;5.97;;;;;;;8.76;48.48;99201.13;4908402;29;20213;-75
2022/04/05 09:26:17;;;;;;;5.90;5.10;;;;;;;8.87;48.29;99193.44;4907005;28;20246;-75
2022/04/05 09:28:50;;;;;;;5.63;4.63;;;;;;;8.96;48.34;99198.09;4908043;29;20218;-75
2022/04/05 09:31:20;;;;;;;5.55;4.70;;;;;;;9.06;47.91;99193.94;4907568;29;20754;-75
2022/04/05 09:34:08;;;;;;;8.70;4.53;;;;;;;9.13;47.65;99197.03;4906954;29;20237;-76
2022/04/05 09:36:39;;;;;;;5.70;4.45;;;;;;;9.15;47.89;99186.44;4906733;29;20229;-74
2022/04/05 09:39:17;;;;;;;5.57;4.97;;;;;;;9.18;47.83;99196.72;4906489;29;20827;-75
2022/04/05 09:41:44;;;;;;;6.32;5.72;;;;;;;9.17;47.53;99208.16;4905539;29;20293;-74
2022/04/05 09:44:09;;;;;;;5.72;4.45;;;;;;;9.18;47.48;99192.34;4906422;29;20240;-75
2022/04/05 09:46:36;;;;;;;6.60;5.60;;;;;;;9.20;47.73;99205.31;4907579;29;20218;-75
2022/04/05 09:49:09;;;;;;;5.47;4.45;;;;;;;9.25;47.99;99198.00;4906359;29;20630;-74
2022/04/05 09:51:46;;;;;;;6.75;5.15;;;;;;;9.28;48.08;99195.19;4906057;29;20206;-75
2022/04/05 09:54:29;;;;;;;6.03;4.90;;;;;;;9.33;48.12;99190.47;4904767;29;20694;-74
2022/04/05 09:57:00;;;;;;;8.15;5.75;;;;;;;9.37;47.97;99204.22;4906291;29;20578;-73
2022/04/05 09:59:45;;;;;;;6.57;5.13;;;;;;;9.37;48.04;99198.97;4906131;29;20206;-74
2022/04/05 10:02:20;;;;;;;7.70;5.47;;;;;;;9.39;47.94;99199.72;4921069;29;20488;-75
2022/04/05 10:05:06;;;;;;;7.45;5.30;;;;;;;9.35;47.93;99198.25;4906172;29;20230;-75
2022/04/05 10:07:32;;;;;;;5.85;5.25;;;;;;;9.32;48.03;99204.53;4904467;29;20427;-73
2022/04/05 10:09:59;;;;;;;6.07;5.47;;;;;;;9.36;48.03;99199.94;4906410;29;20214;-75
2022/04/05 10:12:25;;;;;;;10.02;5.68;;;;;;;9.37;47.88;99202.47;4906017;29;20277;-74
2022/04/05 10:14:51;;;;;;;6.50;4.53;;;;;;;9.37;48.05;99215.56;4904563;29;20706;-74
2022/04/05 10:17:18;;;;;;;7.30;5.30;;;;;;;9.39;47.89;99211.03;4904622;29;20241;-75
2022/04/05 10:19:45;;;;;;;7.15;5.10;;;;;;;9.42;48.01;99212.63;4905414;29;20214;-74
2022/04/05 10:22:13;;;;;;;5.85;3.95;;;;;;;9.46;48.18;99203.63;4905992;29;20649;-75
2022/04/05 10:24:39;;;;;;;6.13;5.00;;;;;;;9.45;48.12;99204.56;4904568;29;20601;-76
2022/04/05 10:27:06;;;;;;;10.30;6.55;;;;;;;9.47;48.17;99197.44;4905140;29;20269;-72
2022/04/05 10:29:33;;;;;;;9.75;5.80;;;;;;;9.45;48.26;99194.94;4906454;28;20261;-74
2022/04/05 10:32:15;;;;;;;10.07;6.13;;;;;;;9.48;48.68;99197.34;4904588;29;20392;-74
2022/04/05 10:34:45;;;;;;;5.80;5.13;;;;;;;9.56;48.76;99196.00;4908671;29;20241;-76
2022/04/05 10:37:18;;;;;;;8.05;4.88;;;;;;;9.59;48.66;99195.81;4909455;28;20214;-75
2022/04/05 10:40:05;;;;;;;8.90;5.72;;;;;;;9.63;48.52;99187.63;4905701;29;20703;-76
2022/04/05 10:42:39;;;;;;;5.60;4.15;;;;;;;9.69;48.26;99184.63;4907316;29;20218;-79
2022/04/05 10:45:15;;;;;;;7.28;5.07;;;;;;;9.77;48.17;99188.47;4908011;29;20228;-82
2022/04/05 10:48:00;;;;;;;5.65;4.75;;;;;;;9.83;48.19;99175.81;4907127;29;20235;-78
2022/04/05 10:50:27;;;;;;;8.85;5.30;;;;;;;9.91;48.22;99185.75;4906493;29;20738;-80
2022/04/05 10:53:12;;;;;;;6.13;5.00;;;;;;;10.01;47.83;99184.19;4905503;29;20216;-81
2022/04/05 10:56:02;;;;;;;4.60;4.00;;;;;;;9.97;47.87;99196.69;4908394;29;20244;-75
2022/04/05 10:58:32;;;;;;;5.45;4.35;;;;;;;9.95;48.10;99195.97;4908808;29;20214;-75
2022/04/05 11:01:21;;;;;;;8.48;5.70;;;;;;;9.94;48.30;99190.84;4907912;29;20209;-75
2022/04/05 11:04:13;;;;;;;5.65;4.60;;;;;;;9.94;48.41;99185.59;4906909;29;20232;-74
2022/04/05 11:07:01;;;;;;;6.28;4.65;;;;;;;10.00;48.53;99174.66;4901965;29;20218;-74
2022/04/05 11:09:49;;;;;;;6.78;5.82;;;;;;;10.12;48.50;99178.22;4904633;29;20218;-73
2022/04/05 11:12:40;;;;;;;5.65;5.05;;;;;;;10.21;48.41;99177.59;4922644;29;20443;-78
2022/04/05 11:15:07;;;;;;;4.50;4.00;;;;;;;10.28;48.21;99167.53;4911725;29;20301;-79
2022/04/05 11:17:33;;;;;;;5.43;4.13;;;;;;;10.35;48.18;99169.63;4910578;29;20309;-80
2022/04/05 11:20:01;;;;;;;6.40;4.20;;;;;;;10.41;47.90;99174.47;4905792;29;20270;-79
2022/04/05 11:22:28;;;;;;;5.53;4.88;;;;;;;10.47;47.92;99164.47;4905936;29;21037;-76
2022/04/05 11:25:00;;;;;;;6.13;4.60;;;;;;;10.53;47.96;99162.28;4906067;29;20328;-78
2022/04/05 11:27:56;;;;;;;6.38;4.63;;;;;;;10.66;47.42;99164.00;4938252;28;20229;-76
2022/04/05 11:30:27;;;;;;;5.57;4.57;;;;;;;10.77;47.47;99162.28;4906792;29;20478;-76
2022/04/05 11:33:17;;;;;;;10.40;6.20;;;;;;;10.88;47.17;99158.88;4907623;29;20975;-80
2022/04/05 11:35:44;;;;;;;9.07;5.75;;;;;;;10.82;47.24;99165.44;4909105;29;20253;-80
2022/04/05 11:38:25;;;;;;;5.78;4.65;;;;;;;10.81;47.45;99155.03;4906709;29;20324;-74
2022/04/05 11:40:54;;;;;;;5.13;4.63;;;;;;;10.76;47.54;99151.91;4906336;29;20301;-79
2022/04/05 11:43:28;;;;;;;5.05;4.10;;;;;;;10.75;47.99;99156.31;4907601;29;20218;-80
2022/04/05 11:46:03;;;;;;;8.18;4.65;;;;;;;10.80;47.89;99145.47;4906148;29;20793;-76